Time;durP1;ratioP1;P1;durP2;ratioP2;P2;SDS_P1;SDS_P2;PMS_P1;PMS_P2;Temp;Humidity;BMP_temperature;BMP_pressure;BME280_temperature;BME280_humidity;BME280_pressure;Samples;Min_cycle;Max_cycle;Signal;HPM_P1;HPM_P2
2022/07/12 00:01:43;;;;;;;26.73;6.03;;;16.10;31.80;;;;;;5045585;28;20482;-58
2022/07/12 00:04:11;;;;;;;29.03;6.90;;;16.10;31.70;;;;;;5046447;28;20469;-59
2022/07/12 00:06:38;;;;;;;28.23;7.17;;;16.10;31.30;;;;;;5045917;28;20505;-61
2022/07/12 00:09:05;;;;;;;28.67;6.90;;;16.10;31.30;;;;;;5045532;28;20466;-59
2022/07/12 00:11:32;;;;;;;29.43;7.10;;;16.10;31.30;;;;;;5045502;28;20663;-60
2022/07/12 00:13:58;;;;;;;28.40;6.80;;;16.10;31.20;;;;;;5044457;28;20966;-59
2022/07/12 00:16:25;;;;;;;30.43;7.33;;;16.00;31.30;;;;;;5049815;28;20478;-60
2022/07/12 00:18:53;;;;;;;28.40;7.17;;;16.00;31.60;;;;;;5060649;28;20476;-59
2022/07/12 00:21:21;;;;;;;28.63;7.40;;;16.00;31.60;;;;;;5049544;28;20462;-60
2022/07/12 00:23:48;;;;;;;30.87;7.73;;;15.90;31.70;;;;;;5046973;28;20455;-59
2022/07/12 00:26:15;;;;;;;29.90;6.80;;;15.90;31.80;;;;;;5046525;28;20446;-59
2022/07/12 00:28:42;;;;;;;31.30;7.60;;;15.90;31.80;;;;;;5042974;28;20479;-59
2022/07/12 00:31:08;;;;;;;28.13;6.90;;;15.90;32.00;;;;;;5038616;28;20466;-60
2022/07/12 00:33:35;;;;;;;28.73;6.97;;;15.80;31.80;;;;;;5049503;28;20458;-59
2022/07/12 00:36:03;;;;;;;29.17;6.80;;;15.80;31.50;;;;;;5054995;28;21031;-59
2022/07/12 00:38:31;;;;;;;29.70;6.60;;;15.80;31.70;;;;;;5049724;28;20500;-58
2022/07/12 00:40:58;;;;;;;29.00;8.00;;;15.70;31.70;;;;;;5047445;28;20458;-60
2022/07/12 00:43:25;;;;;;;29.03;7.20;;;15.70;31.80;;;;;;5048210;28;20969;-59
2022/07/12 00:45:51;;;;;;;37.73;7.30;;;15.70;31.80;;;;;;5045006;28;20473;-59
2022/07/12 00:48:19;;;;;;;28.50;7.50;;;15.70;31.90;;;;;;5044005;28;20560;-61
2022/07/12 00:50:46;;;;;;;29.53;7.10;;;15.70;31.90;;;;;;5049719;28;20457;-58
2022/07/12 00:53:14;;;;;;;29.40;7.00;;;15.60;31.90;;;;;;5049144;28;20468;-60
2022/07/12 00:55:42;;;;;;;30.50;7.57;;;15.60;31.90;;;;;;5044720;28;20473;-59
2022/07/12 00:58:09;;;;;;;30.53;7.90;;;15.50;31.80;;;;;;5044166;28;20482;-61
2022/07/12 01:00:36;;;;;;;29.47;7.57;;;15.50;32.20;;;;;;5048486;28;20817;-59
2022/07/12 01:03:04;;;;;;;30.13;7.33;;;15.50;32.20;;;;;;5043747;28;20974;-59
2022/07/12 01:05:31;;;;;;;30.90;8.40;;;15.50;32.50;;;;;;5046492;28;20462;-58
2022/07/12 01:07:58;;;;;;;28.67;7.80;;;15.50;32.40;;;;;;5045190;28;20592;-59
2022/07/12 01:10:25;;;;;;;31.57;8.60;;;15.40;32.60;;;;;;5047544;28;20473;-59
2022/07/12 01:12:58;;;;;;;28.70;7.60;;;15.40;32.80;;;;;;5048926;28;20469;-59
2022/07/12 01:15:25;;;;;;;29.10;8.97;;;15.40;33.10;;;;;;5047237;28;20470;-58
2022/07/12 01:17:51;;;;;;;30.10;8.73;;;15.40;33.00;;;;;;5047457;28;20486;-60
2022/07/12 01:20:19;;;;;;;28.77;7.93;;;15.40;33.30;;;;;;5050888;28;20461;-60
2022/07/12 01:22:52;;;;;;;30.30;8.47;;;15.40;33.50;;;;;;5056782;28;20466;-60
2022/07/12 01:25:19;;;;;;;28.40;8.33;;;15.40;33.70;;;;;;5069782;28;20460;-61
2022/07/12 01:27:46;;;;;;;28.80;7.80;;;15.40;33.30;;;;;;5050606;28;20532;-60
2022/07/12 01:30:13;;;;;;;29.53;8.57;;;15.40;33.30;;;;;;5051026;28;20462;-58
2022/07/12 01:32:40;;;;;;;29.20;7.40;;;15.30;33.40;;;;;;5049986;28;20499;-61
2022/07/12 01:35:08;;;;;;;32.33;9.13;;;15.30;33.70;;;;;;5051742;28;20462;-58
2022/07/12 01:37:37;;;;;;;30.10;8.73;;;15.30;33.70;;;;;;5047734;28;21048;-59
2022/07/12 01:40:07;;;;;;;29.53;7.70;;;15.30;33.80;;;;;;5052105;28;20457;-59
2022/07/12 01:42:34;;;;;;;30.00;8.60;;;15.30;34.20;;;;;;5053634;28;20461;-60
2022/07/12 01:45:01;;;;;;;32.23;8.53;;;15.30;34.10;;;;;;5047842;28;20474;-59
2022/07/12 01:47:31;;;;;;;30.73;8.33;;;15.30;33.90;;;;;;5049943;28;20473;-58
2022/07/12 01:49:58;;;;;;;31.87;8.77;;;15.20;34.20;;;;;;5049479;28;20462;-58
2022/07/12 01:52:26;;;;;;;30.50;8.07;;;15.20;34.20;;;;;;5042300;28;20477;-57
2022/07/12 01:54:54;;;;;;;32.43;9.53;;;15.20;34.10;;;;;;5043662;28;22116;-59
2022/07/12 01:57:22;;;;;;;34.23;10.20;;;15.20;34.10;;;;;;5047457;28;20521;-60
2022/07/12 01:59:49;;;;;;;33.00;9.20;;;15.10;34.20;;;;;;5059866;28;20462;-59
2022/07/12 02:02:16;;;;;;;29.47;8.00;;;15.10;34.10;;;;;;5070724;28;20473;-59
2022/07/12 02:04:43;;;;;;;32.23;8.53;;;15.10;34.00;;;;;;5042356;28;20454;-60
2022/07/12 02:07:10;;;;;;;30.10;8.93;;;15.10;34.00;;;;;;5044376;28;20478;-58
2022/07/12 02:09:36;;;;;;;29.43;7.40;;;15.00;34.10;;;;;;5046112;28;20458;-57
2022/07/12 02:12:04;;;;;;;30.67;7.60;;;15.00;34.40;;;;;;5047054;28;20458;-59
2022/07/12 02:14:32;;;;;;;32.43;9.43;;;14.90;34.40;;;;;;5043284;28;20450;-58
2022/07/12 02:16:59;;;;;;;30.67;8.20;;;14.90;34.20;;;;;;5047330;28;20482;-58
2022/07/12 02:19:25;;;;;;;34.40;7.87;;;14.90;34.20;;;;;;5045997;28;20841;-60
2022/07/12 02:21:52;;;;;;;29.23;7.47;;;14.90;34.30;;;;;;5046325;28;20463;-59
2022/07/12 02:24:19;;;;;;;30.80;7.83;;;14.80;34.30;;;;;;5046262;28;20462;-59
2022/07/12 02:26:46;;;;;;;32.00;7.80;;;14.80;34.40;;;;;;5049008;28;21032;-60
2022/07/12 02:29:12;;;;;;;30.30;7.53;;;14.80;34.50;;;;;;5046182;28;20458;-58
2022/07/12 02:31:40;;;;;;;30.00;7.90;;;14.70;34.80;;;;;;5047146;28;20860;-57
2022/07/12 02:34:07;;;;;;;29.90;8.00;;;14.70;34.90;;;;;;5047769;28;20549;-60
2022/07/12 02:36:34;;;;;;;29.47;7.87;;;14.70;35.00;;;;;;5042739;28;20497;-58
2022/07/12 02:39:03;;;;;;;29.00;7.60;;;14.80;34.90;;;;;;5046883;28;20485;-58
2022/07/12 02:41:30;;;;;;;31.03;7.90;;;14.80;34.90;;;;;;5047088;28;20510;-58
2022/07/12 02:43:57;;;;;;;31.47;9.40;;;14.80;35.50;;;;;;5045021;28;21014;-60
2022/07/12 02:46:24;;;;;;;30.10;7.40;;;14.80;35.20;;;;;;5045909;28;20818;-59
2022/07/12 02:48:53;;;;;;;29.50;8.03;;;14.80;35.20;;;;;;5045066;28;21014;-58
2022/07/12 02:51:19;;;;;;;29.77;8.33;;;14.90;35.20;;;;;;5045992;28;20458;-58
2022/07/12 02:53:46;;;;;;;29.87;8.40;;;14.90;35.10;;;;;;5043451;28;20462;-58
2022/07/12 02:56:13;;;;;;;31.33;8.20;;;14.90;35.10;;;;;;5046240;28;21142;-59
2022/07/12 02:58:40;;;;;;;29.67;8.33;;;14.90;35.30;;;;;;5047985;28;20497;-59
2022/07/12 03:01:07;;;;;;;34.33;8.87;;;15.00;36.00;;;;;;5041453;28;20482;-57
2022/07/12 03:03:33;;;;;;;30.43;7.90;;;15.00;35.70;;;;;;5040423;28;20466;-58
2022/07/12 03:06:02;;;;;;;29.23;7.60;;;15.00;35.60;;;;;;5039949;28;20466;-59
2022/07/12 03:08:29;;;;;;;32.57;8.33;;;15.10;35.50;;;;;;5044027;28;22101;-58
2022/07/12 03:10:55;;;;;;;32.20;8.23;;;15.10;35.30;;;;;;5042971;28;20461;-59
2022/07/12 03:13:22;;;;;;;29.30;7.60;;;15.10;35.60;;;;;;5044192;28;20488;-59
2022/07/12 03:15:49;;;;;;;30.90;9.27;;;15.10;35.50;;;;;;5043653;28;21185;-59
2022/07/12 03:18:17;;;;;;;31.73;9.70;;;15.10;35.40;;;;;;5044754;28;20497;-60
2022/07/12 03:20:43;;;;;;;31.03;8.70;;;15.10;35.70;;;;;;5044868;28;20536;-58
2022/07/12 03:23:11;;;;;;;33.30;8.53;;;15.10;36.00;;;;;;5044338;28;21016;-60
2022/07/12 03:25:38;;;;;;;31.53;8.67;;;15.10;36.00;;;;;;5045580;28;20488;-60
2022/07/12 03:28:05;;;;;;;31.80;9.37;;;15.10;35.90;;;;;;5041879;28;20478;-60
2022/07/12 03:30:32;;;;;;;30.50;8.70;;;15.10;35.80;;;;;;5046046;28;20996;-58
2022/07/12 03:32:58;;;;;;;30.80;8.67;;;15.20;35.80;;;;;;5042852;28;20545;-58
2022/07/12 03:35:25;;;;;;;31.33;8.60;;;15.20;35.80;;;;;;5038315;28;20473;-58
2022/07/12 03:37:53;;;;;;;32.47;9.60;;;15.20;36.10;;;;;;5077095;22;21050;-58
2022/07/12 03:40:23;;;;;;;29.97;8.37;;;15.20;35.90;;;;;;5073845;28;20803;-59
2022/07/12 03:42:52;;;;;;;30.87;9.37;;;15.20;36.20;;;;;;5060490;28;20493;-59
2022/07/12 03:45:19;;;;;;;32.57;9.33;;;15.30;36.10;;;;;;5062259;28;20484;-58
2022/07/12 03:47:46;;;;;;;32.80;8.80;;;15.30;36.30;;;;;;5054424;28;20568;-59
2022/07/12 03:50:14;;;;;;;33.03;9.27;;;15.30;36.30;;;;;;5058689;28;20461;-58
2022/07/12 03:52:41;;;;;;;30.40;8.63;;;15.30;36.30;;;;;;5058108;28;20465;-60
2022/07/12 03:55:09;;;;;;;30.10;8.77;;;15.30;36.50;;;;;;5057353;28;20457;-59
2022/07/12 03:57:38;;;;;;;31.87;9.70;;;15.30;36.50;;;;;;5057595;28;20485;-58
2022/07/12 04:00:08;;;;;;;34.37;9.83;;;15.30;36.50;;;;;;5047568;28;20469;-58
2022/07/12 04:02:34;;;;;;;36.97;10.27;;;15.30;36.60;;;;;;5047883;28;20509;-58
2022/07/12 04:05:01;;;;;;;35.30;11.07;;;15.30;36.70;;;;;;5061600;28;20480;-59
2022/07/12 04:07:28;;;;;;;32.00;8.70;;;15.40;36.60;;;;;;5059209;28;21031;-59
2022/07/12 04:09:56;;;;;;;30.63;8.20;;;15.40;36.50;;;;;;5062157;28;20583;-60
2022/07/12 04:12:22;;;;;;;32.80;8.80;;;15.40;36.40;;;;;;5067401;28;20465;-61
2022/07/12 04:14:51;;;;;;;30.30;8.47;;;15.40;36.30;;;;;;5069278;28;20469;-61
2022/07/12 04:17:18;;;;;;;31.60;9.40;;;15.40;36.10;;;;;;5066571;28;20478;-60
2022/07/12 04:19:45;;;;;;;31.40;9.37;;;15.50;36.00;;;;;;5074698;28;20468;-60
2022/07/12 04:22:12;;;;;;;32.33;9.50;;;15.50;36.10;;;;;;5069852;28;20464;-61
2022/07/12 04:24:38;;;;;;;32.30;8.63;;;15.50;36.00;;;;;;5064456;28;20488;-63
2022/07/12 04:27:05;;;;;;;33.83;8.97;;;15.50;36.00;;;;;;5064121;28;20485;-62
2022/07/12 04:29:32;;;;;;;31.60;8.70;;;15.60;35.80;;;;;;5063608;28;20502;-60
2022/07/12 04:32:00;;;;;;;34.53;8.70;;;15.60;36.00;;;;;;5067171;28;20477;-59
2022/07/12 04:34:27;;;;;;;34.40;8.10;;;15.60;35.70;;;;;;5058525;28;20472;-61
2022/07/12 04:36:54;;;;;;;32.03;8.10;;;15.60;35.50;;;;;;5061830;28;20461;-63
2022/07/12 04:39:21;;;;;;;32.87;9.20;;;15.80;35.10;;;;;;5065795;28;20491;-62
2022/07/12 04:41:47;;;;;;;33.97;9.30;;;15.90;34.50;;;;;;5062202;28;20468;-65
2022/07/12 04:44:14;;;;;;;32.43;8.93;;;15.80;34.20;;;;;;5066859;28;20466;-63
2022/07/12 04:46:41;;;;;;;33.57;9.40;;;15.90;34.40;;;;;;5062779;28;20964;-66
2022/07/12 04:49:09;;;;;;;31.90;8.80;;;16.00;34.70;;;;;;5063582;28;21007;-63
2022/07/12 04:51:36;;;;;;;31.80;8.23;;;16.10;34.60;;;;;;5063399;28;20461;-64
2022/07/12 04:54:03;;;;;;;34.50;8.17;;;16.30;34.50;;;;;;5059417;28;20474;-58
2022/07/12 04:56:30;;;;;;;35.93;10.10;;;16.40;34.00;;;;;;5065203;28;20465;-60
2022/07/12 04:58:56;;;;;;;33.10;8.50;;;16.50;33.80;;;;;;5062104;28;20488;-60
2022/07/12 05:01:23;;;;;;;33.87;8.67;;;16.60;33.90;;;;;;5059154;28;20481;-63
2022/07/12 05:03:50;;;;;;;33.90;8.60;;;16.70;33.80;;;;;;5064839;28;20468;-63
2022/07/12 05:06:18;;;;;;;33.60;7.93;;;17.40;34.20;;;;;;5060348;28;20458;-62
2022/07/12 05:08:45;;;;;;;31.23;7.43;;;18.10;32.00;;;;;;5063742;28;20481;-62
2022/07/12 05:11:11;;;;;;;32.67;7.60;;;19.30;29.80;;;;;;5066830;28;20468;-63
2022/07/12 05:13:38;;;;;;;31.30;7.00;;;20.60;25.50;;;;;;5068192;28;20461;-63
2022/07/12 05:16:08;;;;;;;31.73;7.10;;;21.40;22.00;;;;;;5064951;28;20462;-62
2022/07/12 05:18:35;;;;;;;30.43;6.37;;;22.00;21.20;;;;;;5053131;28;20525;-64
2022/07/12 05:21:03;;;;;;;31.03;7.17;;;23.40;19.20;;;;;;5056884;28;20457;-62
2022/07/12 05:23:31;;;;;;;31.37;6.40;;;24.80;16.00;;;;;;5060308;28;20497;-62
2022/07/12 05:25:58;;;;;;;34.47;7.00;;;25.90;13.20;;;;;;5058725;28;21015;-62
2022/07/12 05:28:25;;;;;;;29.20;5.90;;;26.90;11.00;;;;;;5055968;28;20472;-63
2022/07/12 05:30:52;;;;;;;32.00;5.80;;;27.70;9.70;;;;;;5061807;28;20476;-66
2022/07/12 05:33:18;;;;;;;30.00;6.30;;;28.60;8.10;;;;;;5061361;28;20452;-64
2022/07/12 05:35:45;;;;;;;28.90;4.67;;;29.60;6.70;;;;;;5060629;28;20457;-62
2022/07/12 05:38:12;;;;;;;28.03;6.37;;;30.60;4.70;;;;;;5056121;28;21397;-63
2022/07/12 05:40:40;;;;;;;31.23;6.50;;;31.40;4.50;;;;;;5060513;28;20466;-63
2022/07/12 05:43:07;;;;;;;28.30;5.60;;;32.10;2.80;;;;;;5058134;28;20461;-63
2022/07/12 05:45:33;;;;;;;29.27;5.40;;;32.60;1.40;;;;;;5060645;28;20472;-63
2022/07/12 05:48:00;;;;;;;28.63;4.80;;;33.20;1.20;;;;;;5054984;28;20488;-65
2022/07/12 05:50:27;;;;;;;27.07;4.83;;;34.00;1.00;;;;;;5054253;28;20457;-64
2022/07/12 05:55:38;;;;;;;26.60;4.50;;;35.50;1.00;;;;;;5053737;28;20462;-63
2022/07/12 05:58:06;;;;;;;26.37;4.33;;;36.00;1.00;;;;;;5057686;28;20493;-62
2022/07/12 06:00:33;;;;;;;29.47;4.20;;;36.40;1.00;;;;;;5060106;28;20453;-62
2022/07/12 06:02:59;;;;;;;27.23;4.43;;;36.90;1.00;;;;;;5059527;28;20461;-64
2022/07/12 06:05:26;;;;;;;25.70;4.57;;;37.40;1.00;;;;;;5063849;28;20461;-62
2022/07/12 06:07:53;;;;;;;26.23;4.13;;;38.10;1.00;;;;;;5060570;28;20499;-64
2022/07/12 06:10:20;;;;;;;24.87;4.13;;;38.80;1.00;;;;;;5064209;28;20972;-60
2022/07/12 06:12:46;;;;;;;24.67;3.70;;;39.30;1.00;;;;;;5064860;28;20503;-60
2022/07/12 06:15:14;;;;;;;26.63;5.07;;;39.80;1.00;;;;;;5052014;28;20480;-61
2022/07/12 06:17:41;;;;;;;24.77;4.60;;;40.30;1.00;;;;;;5054523;28;20488;-61
2022/07/12 06:20:09;;;;;;;24.60;4.90;;;40.90;1.00;;;;;;5055027;28;20492;-61
2022/07/12 06:22:36;;;;;;;24.00;4.10;;;41.40;1.00;;;;;;5060076;28;20461;-62
2022/07/12 06:25:02;;;;;;;24.17;4.20;;;42.00;1.00;;;;;;5061852;28;20472;-59
2022/07/12 06:27:29;;;;;;;24.40;4.20;;;42.50;1.00;;;;;;5058026;28;20489;-61
2022/07/12 06:29:56;;;;;;;24.10;4.00;;;43.00;1.00;;;;;;5056808;28;21008;-62
2022/07/12 06:32:24;;;;;;;23.77;4.00;;;43.40;1.00;;;;;;5063461;28;20473;-60
2022/07/12 06:34:50;;;;;;;23.17;4.00;;;43.90;1.00;;;;;;5062958;28;20572;-61
2022/07/12 06:37:17;;;;;;;23.60;3.73;;;44.30;1.00;;;;;;5055559;28;20524;-61
2022/07/12 06:39:46;;;;;;;23.23;4.37;;;44.50;1.00;;;;;;5058261;28;20489;-61
2022/07/12 06:42:13;;;;;;;23.00;3.70;;;44.70;1.00;;;;;;5056356;28;21066;-61
2022/07/12 06:44:40;;;;;;;22.73;3.87;;;44.90;1.00;;;;;;5057835;28;20908;-59
2022/07/12 06:47:07;;;;;;;22.60;3.40;;;45.20;1.00;;;;;;5053070;28;20484;-63
2022/07/12 06:49:35;;;;;;;22.50;3.60;;;45.70;1.00;;;;;;5064942;28;20461;-63
2022/07/12 06:52:02;;;;;;;22.80;3.53;;;46.10;1.00;;;;;;5059361;28;20496;-64
2022/07/12 06:54:29;;;;;;;22.07;3.20;;;46.50;1.00;;;;;;5064548;28;20449;-64
2022/07/12 06:56:56;;;;;;;22.07;3.40;;;47.00;1.00;;;;;;5060987;28;20489;-62
2022/07/12 06:59:23;;;;;;;22.30;3.10;;;47.10;1.00;;;;;;5055635;28;21088;-64
2022/07/12 07:01:50;;;;;;;23.13;3.17;;;47.10;1.00;;;;;;5057103;28;20484;-62
2022/07/12 07:04:16;;;;;;;23.13;3.50;;;47.20;1.00;;;;;;5064077;28;21025;-62
2022/07/12 07:06:45;;;;;;;22.17;3.00;;;47.50;1.00;;;;;;5064204;28;20472;-63
2022/07/12 07:09:11;;;;;;;22.53;3.03;;;48.00;1.00;;;;;;5058903;28;20544;-63
2022/07/12 07:11:38;;;;;;;22.07;3.37;;;48.60;1.00;;;;;;5057582;28;20495;-64
2022/07/12 07:14:05;;;;;;;21.90;2.70;;;49.10;1.00;;;;;;5063599;28;20461;-62
2022/07/12 07:16:32;;;;;;;21.40;2.93;;;49.50;1.00;;;;;;5056544;28;20462;-62
2022/07/12 07:18:58;;;;;;;21.17;2.90;;;50.00;1.00;;;;;;5055339;28;20497;-64
2022/07/12 07:21:25;;;;;;;20.60;2.83;;;50.30;1.00;;;;;;5058423;28;20468;-63
2022/07/12 07:23:53;;;;;;;20.70;2.70;;;50.70;1.00;;;;;;5063954;28;20466;-64
2022/07/12 07:26:20;;;;;;;20.50;3.10;;;50.60;1.00;;;;;;5059156;28;20473;-63
2022/07/12 07:31:35;;;;;;;20.47;2.50;;;50.20;1.00;;;;;;5061999;28;20509;-62
2022/07/12 07:34:01;;;;;;;20.37;2.30;;;50.40;1.00;;;;;;5059011;28;20472;-63
2022/07/12 07:36:28;;;;;;;20.47;2.60;;;50.80;1.00;;;;;;5063424;28;20458;-64
2022/07/12 07:38:58;;;;;;;21.20;2.80;;;51.30;1.00;;;;;;5061050;28;20508;-63
2022/07/12 07:41:25;;;;;;;20.43;2.63;;;51.40;1.00;;;;;;5058792;28;20772;-63
2022/07/12 07:43:52;;;;;;;20.43;2.60;;;51.90;1.00;;;;;;5061000;28;20453;-62
2022/07/12 07:46:19;;;;;;;20.80;2.50;;;52.30;1.00;;;;;;5056838;28;23453;-64
2022/07/12 07:48:45;;;;;;;19.93;2.50;;;52.50;1.00;;;;;;5060370;28;20488;-64
2022/07/12 07:51:12;;;;;;;21.10;2.40;;;53.00;1.00;;;;;;5053191;28;20916;-64
2022/07/12 07:53:39;;;;;;;19.93;2.07;;;53.40;1.00;;;;;;5058333;28;20465;-63
2022/07/12 07:56:07;;;;;;;21.50;2.40;;;53.80;1.00;;;;;;5056283;28;20988;-64
2022/07/12 07:58:34;;;;;;;19.23;2.03;;;54.20;1.00;;;;;;5057857;28;20500;-64
2022/07/12 08:01:01;;;;;;;18.97;1.70;;;54.50;1.00;;;;;;5059074;28;20484;-63
2022/07/12 08:03:28;;;;;;;20.83;2.20;;;54.60;1.00;;;;;;5055412;28;20468;-65
2022/07/12 08:05:57;;;;;;;19.07;2.10;;;54.80;1.00;;;;;;5054289;28;20464;-64
2022/07/12 08:08:24;;;;;;;19.73;2.40;;;54.80;1.00;;;;;;5056227;28;20563;-64
2022/07/12 08:10:50;;;;;;;19.47;2.00;;;54.70;1.00;;;;;;5058402;28;20460;-66
2022/07/12 08:13:19;;;;;;;19.17;2.27;;;54.70;1.00;;;;;;5064731;28;20465;-64
2022/07/12 08:15:45;;;;;;;18.77;1.80;;;54.90;1.00;;;;;;5061102;28;20883;-64
2022/07/12 08:18:12;;;;;;;18.93;2.03;;;54.50;1.00;;;;;;5054125;28;20492;-64
2022/07/12 08:20:39;;;;;;;20.00;2.20;;;51.20;1.00;;;;;;5057145;28;20460;-66
2022/07/12 08:23:06;;;;;;;20.17;2.70;;;50.20;1.00;;;;;;5063251;28;20464;-63
2022/07/12 08:25:33;;;;;;;19.87;2.53;;;50.80;1.00;;;;;;5063900;28;20479;-65
2022/07/12 08:28:00;;;;;;;20.13;2.40;;;51.80;1.00;;;;;;5064151;28;20477;-64
2022/07/12 08:30:28;;;;;;;19.77;2.40;;;52.40;1.00;;;;;;5062432;28;20492;-62
2022/07/12 08:32:55;;;;;;;20.10;2.60;;;52.80;1.00;;;;;;5060642;28;20965;-63
2022/07/12 08:35:23;;;;;;;19.70;2.40;;;52.70;1.00;;;;;;5061864;28;21182;-64
2022/07/12 08:37:50;;;;;;;20.13;2.33;;;53.10;1.00;;;;;;5066882;28;20989;-64
2022/07/12 08:40:16;;;;;;;20.97;2.00;;;53.80;1.00;;;;;;5057905;28;20834;-64
2022/07/12 08:42:45;;;;;;;18.67;1.70;;;54.40;1.00;;;;;;5054702;28;20453;-62
2022/07/12 08:45:11;;;;;;;18.90;2.20;;;54.40;1.00;;;;;;5056926;28;20465;-62
2022/07/12 08:47:40;;;;;;;19.33;2.23;;;54.50;1.00;;;;;;5053112;28;20485;-62
2022/07/12 08:50:12;;;;;;;19.17;2.00;;;54.90;1.00;;;;;;5057852;28;20491;-64
2022/07/12 08:52:40;;;;;;;18.77;2.00;;;55.30;1.00;;;;;;5055852;28;20457;-62
2022/07/12 08:55:18;;;;;;;18.50;1.70;;;55.80;1.00;;;;;;5059850;28;20542;-63
2022/07/12 08:57:45;;;;;;;19.00;1.80;;;53.90;1.00;;;;;;5062887;28;20484;-64
2022/07/12 09:00:13;;;;;;;19.57;2.00;;;54.40;1.00;;;;;;5063817;28;21014;-64
2022/07/12 09:02:49;;;;;;;18.63;1.60;;;55.80;1.00;;;;;;5068059;28;20940;-64
2022/07/12 09:05:17;;;;;;;19.20;1.97;;;56.30;1.00;;;;;;5068106;28;20456;-63
2022/07/12 09:07:44;;;;;;;18.30;1.70;;;57.10;1.00;;;;;;5069514;28;20477;-64
2022/07/12 09:10:13;;;;;;;18.93;1.73;;;57.70;1.00;;;;;;5068895;28;20484;-62
2022/07/12 09:12:41;;;;;;;18.53;1.70;;;56.60;1.00;;;;;;5068506;28;21021;-63
2022/07/12 09:15:19;;;;;;;19.40;2.10;;;54.60;1.00;;;;;;5065057;28;20473;-62
2022/07/12 09:18:03;;;;;;;18.47;1.50;;;55.20;1.00;;;;;;5068047;28;20484;-63
2022/07/12 09:20:32;;;;;;;19.00;1.80;;;55.50;1.00;;;;;;5066114;28;20460;-63
2022/07/12 09:23:00;;;;;;;18.90;1.67;;;54.90;1.00;;;;;;5063999;28;20468;-63
2022/07/12 09:25:27;;;;;;;19.00;2.00;;;54.30;1.00;;;;;;5060222;28;20499;-64
2022/07/12 09:27:56;;;;;;;19.57;1.60;;;53.40;1.00;;;;;;5075458;28;20479;-63
2022/07/12 09:30:24;;;;;;;19.63;1.73;;;50.80;1.00;;;;;;5059439;28;20486;-63
2022/07/12 09:36:09;;;;;;;21.13;2.07;;;45.20;1.00;;;;;;5063314;28;20449;-61
2022/07/12 09:38:36;;;;;;;22.17;1.67;;;42.80;1.00;;;;;;5065444;23;20494;-67
2022/07/12 09:41:04;;;;;;;21.60;2.00;;;41.00;1.00;;;;;;5049472;28;20476;-67
2022/07/12 09:43:32;;;;;;;22.60;2.20;;;39.50;1.00;;;;;;5049063;28;20462;-67
2022/07/12 09:45:59;;;;;;;22.60;2.50;;;38.30;1.00;;;;;;5052942;28;20486;-67
2022/07/12 09:48:27;;;;;;;22.83;2.50;;;37.30;1.00;;;;;;5048691;28;20462;-67
2022/07/12 09:50:57;;;;;;;23.03;2.00;;;36.40;1.00;;;;;;5047876;28;20485;-67
2022/07/12 09:53:29;;;;;;;23.03;2.43;;;35.70;1.00;;;;;;5049177;28;21048;-66
2022/07/12 09:55:56;;;;;;;23.80;3.00;;;34.90;1.00;;;;;;5048555;28;20484;-66
2022/07/12 09:58:26;;;;;;;24.07;2.40;;;34.10;1.00;;;;;;5045374;28;20986;-66
2022/07/12 10:00:54;;;;;;;23.37;2.20;;;33.60;1.00;;;;;;5058961;28;20465;-66
2022/07/12 10:03:25;;;;;;;28.20;2.77;;;33.00;1.00;;;;;;5049294;28;20454;-66
2022/07/12 10:05:53;;;;;;;23.30;2.80;;;32.80;1.00;;;;;;5049255;28;20485;-66
2022/07/12 10:08:22;;;;;;;23.27;2.30;;;32.70;1.00;;;;;;5051072;28;20461;-66
2022/07/12 10:10:50;;;;;;;24.80;2.30;;;32.50;1.00;;;;;;5048709;28;21017;-66
2022/07/12 10:13:19;;;;;;;24.60;3.13;;;32.20;1.00;;;;;;5048688;28;20492;-66
2022/07/12 10:15:47;;;;;;;23.90;2.40;;;31.90;1.00;;;;;;5048772;28;20493;-66
2022/07/12 10:18:19;;;;;;;26.30;2.80;;;31.80;1.00;;;;;;5047855;28;20543;-66
2022/07/12 10:20:46;;;;;;;23.80;2.53;;;31.40;1.00;;;;;;5035302;28;20457;-66
2022/07/12 10:23:34;;;;;;;23.80;2.83;;;31.10;1.00;;;;;;5057130;28;20464;-66
2022/07/12 10:26:01;;;;;;;24.00;2.70;;;30.90;1.00;;;;;;5048480;28;20584;-66
2022/07/12 10:28:57;;;;;;;24.00;3.00;;;30.80;1.00;;;;;;5048083;28;20461;-66
2022/07/12 10:31:28;;;;;;;24.30;2.83;;;30.70;1.00;;;;;;5057782;28;20526;-66
2022/07/12 10:34:12;;;;;;;23.70;2.53;;;30.70;1.00;;;;;;5056744;28;20838;-66
2022/07/12 10:37:10;;;;;;;24.67;2.80;;;30.60;1.00;;;;;;5048074;28;21002;-66
2022/07/12 10:39:40;;;;;;;23.50;2.30;;;30.50;1.00;;;;;;5048937;28;20523;-66
2022/07/12 10:42:19;;;;;;;24.23;2.60;;;30.50;1.00;;;;;;5056554;28;20492;-66
2022/07/12 10:44:47;;;;;;;24.97;2.83;;;30.40;1.00;;;;;;5064242;28;20484;-66
2022/07/12 10:47:17;;;;;;;25.27;2.30;;;30.30;1.00;;;;;;5048109;28;20900;-66
2022/07/12 10:49:48;;;;;;;24.70;2.80;;;30.30;1.00;;;;;;5047991;28;20494;-66
2022/07/12 10:52:24;;;;;;;24.80;2.57;;;30.20;1.00;;;;;;5048224;28;20469;-66
2022/07/12 10:55:19;;;;;;;24.43;2.57;;;30.10;1.00;;;;;;5051558;28;21004;-66
2022/07/12 10:57:50;;;;;;;24.10;2.47;;;30.10;1.00;;;;;;5054062;28;20842;-65
2022/07/12 11:00:17;;;;;;;25.00;2.70;;;30.20;1.30;;;;;;5048190;28;20490;-66
2022/07/12 11:02:45;;;;;;;24.43;2.80;;;30.20;1.00;;;;;;5049229;28;20517;-66
2022/07/12 11:05:12;;;;;;;26.20;2.60;;;30.20;1.00;;;;;;5048234;28;20787;-66
2022/07/12 11:07:39;;;;;;;25.20;2.30;;;30.10;1.50;;;;;;5048199;28;20543;-66
2022/07/12 11:10:07;;;;;;;25.00;2.53;;;30.00;1.00;;;;;;5046191;28;20513;-66
2022/07/12 11:12:35;;;;;;;25.00;3.00;;;29.70;1.00;;;;;;5048727;28;20462;-66
2022/07/12 11:15:03;;;;;;;24.93;2.50;;;29.40;1.00;;;;;;5052753;28;20485;-65
2022/07/12 11:17:31;;;;;;;25.37;3.00;;;29.10;1.00;;;;;;5054413;28;20461;-66
2022/07/12 11:20:10;;;;;;;25.20;3.60;;;28.70;1.00;;;;;;5063433;28;20469;-66
2022/07/12 11:22:38;;;;;;;24.40;2.20;;;28.60;1.40;;;;;;5047980;28;20469;-65
2022/07/12 11:25:08;;;;;;;25.97;2.90;;;28.50;1.80;;;;;;5047289;28;20481;-66
2022/07/12 11:27:36;;;;;;;24.43;2.40;;;28.40;2.60;;;;;;5047158;28;20890;-66
2022/07/12 11:30:08;;;;;;;25.40;2.57;;;28.30;3.10;;;;;;5038982;28;20481;-66
2022/07/12 11:32:39;;;;;;;24.57;2.77;;;28.30;2.70;;;;;;5052226;28;20497;-66
2022/07/12 11:35:19;;;;;;;24.57;2.40;;;28.20;2.90;;;;;;5047893;28;21131;-65
2022/07/12 11:37:50;;;;;;;24.90;2.73;;;28.10;3.00;;;;;;5047156;28;20477;-66
2022/07/12 11:40:22;;;;;;;29.33;2.77;;;28.00;2.90;;;;;;5034303;28;20461;-66
2022/07/12 11:42:55;;;;;;;25.80;2.83;;;27.90;2.40;;;;;;5045635;28;20461;-66
2022/07/12 11:45:22;;;;;;;25.00;3.13;;;27.70;2.70;;;;;;5047719;28;20492;-66
2022/07/12 11:47:49;;;;;;;24.53;2.33;;;27.50;3.10;;;;;;5041234;28;20473;-66
2022/07/12 11:50:18;;;;;;;24.57;2.40;;;27.40;4.20;;;;;;5055721;28;20486;-66
2022/07/12 11:52:45;;;;;;;24.47;2.40;;;27.40;5.00;;;;;;5046116;28;20472;-65
2022/07/12 11:55:12;;;;;;;24.93;2.73;;;27.40;5.00;;;;;;5046986;28;20485;-65
2022/07/12 11:57:39;;;;;;;24.67;2.30;;;27.30;3.00;;;;;;5047039;28;20458;-65
2022/07/12 12:00:23;;;;;;;24.87;2.27;;;27.20;3.40;;;;;;5047203;28;20845;-66
2022/07/12 12:02:52;;;;;;;25.10;2.77;;;27.20;4.40;;;;;;5045281;28;20528;-65
2022/07/12 12:05:20;;;;;;;25.20;3.20;;;27.10;3.40;;;;;;5048825;28;20993;-65
2022/07/12 12:07:47;;;;;;;26.27;2.60;;;27.00;3.70;;;;;;5054273;28;20464;-65
2022/07/12 12:10:16;;;;;;;24.93;2.60;;;26.90;3.30;;;;;;5047111;28;20539;-65
2022/07/12 12:12:44;;;;;;;25.27;2.40;;;26.90;4.40;;;;;;5053385;28;20473;-65
2022/07/12 12:15:12;;;;;;;24.60;2.50;;;26.90;4.50;;;;;;5059055;28;20481;-65
2022/07/12 12:17:46;;;;;;;26.33;2.77;;;26.90;4.20;;;;;;5066891;28;20794;-66
2022/07/12 12:20:16;;;;;;;25.30;2.57;;;26.80;3.60;;;;;;5066791;28;20471;-65
2022/07/12 12:22:44;;;;;;;25.80;3.33;;;26.80;3.60;;;;;;5056117;28;20465;-65
2022/07/12 12:25:14;;;;;;;25.03;2.43;;;26.80;4.80;;;;;;5047056;28;20489;-66
2022/07/12 12:27:42;;;;;;;25.20;2.47;;;26.80;3.50;;;;;;5048002;28;20466;-65
2022/07/12 12:30:10;;;;;;;24.50;2.27;;;26.70;3.40;;;;;;5043880;28;20489;-65
2022/07/12 12:32:53;;;;;;;24.90;2.30;;;26.70;5.40;;;;;;5049320;28;20457;-65
2022/07/12 12:35:21;;;;;;;24.80;2.40;;;26.60;5.60;;;;;;5052173;28;20495;-65
2022/07/12 12:37:53;;;;;;;26.20;2.63;;;26.60;5.70;;;;;;5050399;28;20509;-65
2022/07/12 12:40:21;;;;;;;25.37;2.30;;;26.70;4.40;;;;;;5055271;28;20461;-65
2022/07/12 12:42:48;;;;;;;25.77;2.60;;;26.60;5.20;;;;;;5070363;28;20983;-65
2022/07/12 12:45:19;;;;;;;26.53;2.53;;;26.70;4.80;;;;;;5055479;28;20624;-65
2022/07/12 12:47:59;;;;;;;27.07;2.40;;;26.70;4.80;;;;;;5050594;28;20516;-65
2022/07/12 12:50:40;;;;;;;25.00;2.87;;;26.60;4.70;;;;;;5050779;28;20482;-65
2022/07/12 12:53:12;;;;;;;25.50;2.30;;;26.70;5.10;;;;;;5044488;28;20466;-66
2022/07/12 12:55:40;;;;;;;24.80;2.30;;;26.70;5.00;;;;;;5044397;28;21004;-65
2022/07/12 12:58:07;;;;;;;25.43;2.20;;;26.80;4.70;;;;;;5069124;28;20487;-65